createdAt,value
2023-03-05T00:04:42.683Z,99697.34
2023-03-05T00:09:45.411Z,99697.38
2023-03-05T00:14:48.405Z,99690.60
2023-03-05T00:19:51.176Z,99683.77
2023-03-05T00:24:54.019Z,99678.85
2023-03-05T00:29:56.896Z,99674.27
2023-03-05T00:34:59.662Z,99668.29
2023-03-05T00:40:03.543Z,99662.34
2023-03-05T00:45:09.361Z,99654.20
2023-03-05T00:50:12.303Z,99651.00
2023-03-05T00:55:15.103Z,99647.80
2023-03-05T01:00:18.147Z,99641.52
2023-03-05T01:05:21.337Z,99636.33
2023-03-05T01:10:29.309Z,99628.55
2023-03-05T01:15:32.082Z,99631.50
2023-03-05T01:20:34.972Z,99625.98
2023-03-05T01:25:38.080Z,99624.83
2023-03-05T01:30:40.840Z,99619.44
2023-03-05T01:35:47.972Z,99614.04
2023-03-05T01:40:51.376Z,99612.55
2023-03-05T01:46:13.475Z,99606.30
2023-03-05T01:51:19.034Z,99608.54
2023-03-05T01:56:22.330Z,99604.31
2023-03-05T02:01:25.163Z,99597.88
2023-03-05T02:06:28.718Z,99598.12
2023-03-05T02:11:32.635Z,99596.97
2023-03-05T02:16:37.298Z,99593.23
2023-03-05T02:21:48.045Z,99591.41
2023-03-05T02:26:51.036Z,99584.83
2023-03-05T02:31:54.065Z,99586.70
2023-03-05T02:36:57.114Z,99576.52
2023-03-05T02:41:59.944Z,99570.76
2023-03-05T02:47:02.656Z,99569.62
2023-03-05T02:52:05.724Z,99570.30
2023-03-05T02:57:08.650Z,99573.05
2023-03-05T03:02:11.788Z,99565.24
2023-03-05T03:07:16.314Z,99566.26
2023-03-05T03:12:19.111Z,99563.89
2023-03-05T03:17:21.881Z,99556.21
2023-03-05T03:22:26.548Z,99556.36
2023-03-05T03:27:29.787Z,99549.53
2023-03-05T03:32:34.183Z,99543.34
2023-03-05T03:37:37.036Z,99531.55
2023-03-05T03:42:39.977Z,99517.86
2023-03-05T03:47:43.554Z,99508.42
2023-03-05T03:52:46.519Z,99497.09
2023-03-05T03:57:49.263Z,99488.69
2023-03-05T04:02:51.978Z,99481.81
2023-03-05T04:07:55.205Z,99479.07
2023-03-05T04:12:57.960Z,99469.50
2023-03-05T04:18:00.966Z,99457.61
2023-03-05T04:23:03.711Z,99457.83
2023-03-05T04:28:06.490Z,99446.80
2023-03-05T04:33:09.254Z,99439.71
2023-03-05T04:38:12.317Z,99430.64
2023-03-05T04:43:15.074Z,99428.95
2023-03-05T04:48:18.982Z,99418.48
2023-03-05T04:53:21.725Z,99418.08
2023-03-05T04:58:24.449Z,99403.69
2023-03-05T05:03:27.286Z,99412.60
2023-03-05T05:08:30.130Z,99410.04
2023-03-05T05:13:34.730Z,99397.95
2023-03-05T05:18:37.546Z,99399.03
2023-03-05T05:23:40.316Z,99399.08
2023-03-05T05:28:44.095Z,99408.70
2023-03-05T05:33:49.670Z,99408.58
2023-03-05T05:38:52.686Z,99412.35
2023-03-05T05:43:55.547Z,99416.64
2023-03-05T05:48:58.321Z,99419.79
2023-03-05T05:54:01.178Z,99425.07
2023-03-05T05:59:03.981Z,99420.55
2023-03-05T06:04:06.781Z,99410.23
2023-03-05T06:09:09.661Z,99407.62
2023-03-05T06:14:13.313Z,99406.73
2023-03-05T06:19:16.545Z,99413.45
2023-03-05T06:24:19.551Z,99413.07
2023-03-05T06:29:22.488Z,99410.02
2023-03-05T06:34:25.636Z,99414.59
2023-03-05T06:39:28.360Z,99415.16
2023-03-05T06:44:31.649Z,99413.88
2023-03-05T06:49:34.699Z,99411.01
2023-03-05T06:54:38.249Z,99410.88
2023-03-05T06:59:41.017Z,99401.58
2023-03-05T07:04:43.787Z,99396.02
2023-03-05T07:09:48.180Z,99399.09
2023-03-05T07:14:51.403Z,99396.13
2023-03-05T07:19:54.132Z,99394.81
2023-03-05T07:24:57.117Z,99391.86
2023-03-05T07:29:59.873Z,99386.44
2023-03-05T07:35:03.515Z,99385.48
2023-03-05T07:40:07.401Z,99384.56
2023-03-05T07:45:10.579Z,99378.75
2023-03-05T07:50:13.393Z,99374.02
2023-03-05T07:55:16.299Z,99363.64
2023-03-05T08:00:19.329Z,99362.67
2023-03-05T08:05:22.183Z,99362.73
2023-03-05T08:10:25.656Z,99359.88
2023-03-05T08:15:28.622Z,99363.84
2023-03-05T08:20:31.661Z,99365.27
2023-03-05T08:25:34.744Z,99360.83
2023-03-05T08:30:40.583Z,99357.29
2023-03-05T08:35:44.135Z,99352.96
2023-03-05T08:40:48.156Z,99354.69
2023-03-05T08:45:51.705Z,99344.04
2023-03-05T08:50:54.709Z,99346.09
2023-03-05T08:55:59.087Z,99346.91
2023-03-05T09:01:02.624Z,99338.31
2023-03-05T09:06:08.591Z,99342.05
2023-03-05T09:11:14.079Z,99336.29
2023-03-05T09:16:19.140Z,99337.38
2023-03-05T09:21:22.028Z,99334.22
2023-03-05T09:26:25.050Z,99339.45
2023-03-05T09:31:29.134Z,99338.05
2023-03-05T09:36:33.249Z,99335.30
2023-03-05T09:41:48.474Z,99333.24
2023-03-05T09:46:55.705Z,99327.35
2023-03-05T09:52:23.363Z,99326.52
2023-03-05T09:57:39.082Z,99319.49
2023-03-05T10:02:50.641Z,99315.02
2023-03-05T10:07:58.300Z,99310.11
2023-03-05T10:13:11.821Z,99311.14
2023-03-05T10:18:47.366Z,99302.05
2023-03-05T10:24:08.420Z,99300.84
2023-03-05T10:29:14.178Z,99298.02
2023-03-05T10:34:42.302Z,99293.38
2023-03-05T10:40:20.436Z,99299.05
2023-03-05T10:45:28.928Z,99307.52
2023-03-05T10:50:38.445Z,99300.59
2023-03-05T10:55:42.095Z,99301.64
2023-03-05T11:01:05.973Z,99284.75
2023-03-05T11:06:13.566Z,99280.51
2023-03-05T11:11:41.471Z,99273.23
2023-03-05T11:16:50.893Z,99257.19
2023-03-05T11:22:22.998Z,99254.48
2023-03-05T11:27:44.739Z,99248.22
2023-03-05T11:32:47.505Z,99237.24
2023-03-05T11:38:00.735Z,99239.27
2023-03-05T11:43:04.651Z,99244.64
2023-03-05T11:48:36.741Z,99247.73
2023-03-05T11:53:39.722Z,99240.58
2023-03-05T11:58:58.974Z,99246.05
2023-03-05T12:04:04.051Z,99265.28
2023-03-05T12:09:21.438Z,99272.66
2023-03-05T12:14:39.050Z,99264.02
2023-03-05T12:20:12.341Z,99243.23
2023-03-05T12:25:32.484Z,99233.44
2023-03-05T12:30:37.621Z,99234.62
2023-03-05T12:35:41.256Z,99218.20
2023-03-05T12:40:45.820Z,99208.27
2023-03-05T12:45:48.872Z,99210.89
2023-03-05T12:50:57.793Z,99214.87
2023-03-05T12:56:14.353Z,99210.52
2023-03-05T13:01:46.359Z,99209.68
2023-03-05T13:07:00.734Z,99210.34
2023-03-05T13:12:12.112Z,99213.19
2023-03-05T13:17:34.591Z,99210.06
2023-03-05T13:22:39.021Z,99209.03
2023-03-05T13:27:42.612Z,99210.02
2023-03-05T13:32:45.476Z,99211.90
2023-03-05T13:37:48.973Z,99209.70
2023-03-05T13:42:57.058Z,99201.71
2023-03-05T13:48:15.709Z,99206.92
2023-03-05T13:53:38.821Z,99209.52
2023-03-05T13:58:54.873Z,99205.03
2023-03-05T14:04:06.003Z,99199.70
2023-03-05T14:09:18.768Z,99195.89
2023-03-05T14:14:23.554Z,99196.87
2023-03-05T14:19:32.365Z,99188.51
2023-03-05T14:24:36.828Z,99181.79
2023-03-05T14:29:46.363Z,99179.52
2023-03-05T14:34:55.313Z,99180.04
2023-03-05T14:40:05.368Z,99185.08
2023-03-05T14:45:27.774Z,99183.67
2023-03-05T14:50:34.779Z,99182.14
2023-03-05T14:55:38.625Z,99181.27
2023-03-05T15:00:42.532Z,99181.71
2023-03-05T15:05:50.928Z,99181.41
2023-03-05T15:10:54.239Z,99174.55
2023-03-05T15:15:58.634Z,99175.08
2023-03-05T15:21:03.156Z,99166.55
2023-03-05T15:26:08.586Z,99165.20
2023-03-05T15:31:11.511Z,99158.36
2023-03-05T15:36:14.374Z,99163.70
2023-03-05T15:41:17.748Z,99167.63
2023-03-05T15:46:20.934Z,99173.27
2023-03-05T15:51:23.714Z,99172.41
2023-03-05T15:56:26.507Z,99179.54
2023-03-05T16:01:29.450Z,99181.06
2023-03-05T16:06:34.199Z,99180.63
2023-03-05T16:11:40.049Z,99185.63
2023-03-05T16:16:43.995Z,99192.41
2023-03-05T16:21:47.354Z,99198.02
2023-03-05T16:26:50.059Z,99203.95
2023-03-05T16:31:52.910Z,99200.90
2023-03-05T16:36:56.149Z,99211.87
2023-03-05T16:41:58.852Z,99211.95
2023-03-05T16:47:02.641Z,99208.36
2023-03-05T16:52:17.745Z,99211.20
2023-03-05T16:57:24.282Z,99211.53
2023-03-05T17:02:29.791Z,99213.21
2023-03-05T17:07:32.548Z,99212.44
2023-03-05T17:12:35.351Z,99213.98
2023-03-05T17:17:39.089Z,99215.77
2023-03-05T17:22:42.167Z,99218.81
2023-03-05T17:27:44.912Z,99216.73
2023-03-05T17:32:47.780Z,99215.30
2023-03-05T17:37:51.983Z,99215.83
2023-03-05T17:42:54.699Z,99212.27
2023-03-05T17:47:58.807Z,99215.45
2023-03-05T17:53:01.927Z,99208.20
2023-03-05T17:58:04.715Z,99213.90
2023-03-05T18:03:07.631Z,99213.52
2023-03-05T18:08:10.422Z,99219.17
2023-03-05T18:13:13.248Z,99217.84
2023-03-05T18:18:18.149Z,99223.84
2023-03-05T18:23:20.996Z,99214.96
2023-03-05T18:28:25.921Z,99219.73
2023-03-05T18:33:28.833Z,99219.35
2023-03-05T18:38:32.225Z,99221.64
2023-03-05T18:43:36.001Z,99219.38
2023-03-05T18:48:38.759Z,99219.67
2023-03-05T18:53:41.593Z,99215.83
2023-03-05T18:58:44.985Z,99217.27
2023-03-05T19:03:49.420Z,99219.59
2023-03-05T19:08:58.741Z,99226.13
2023-03-05T19:14:01.844Z,99222.61
2023-03-05T19:19:16.750Z,99227.18
2023-03-05T19:24:22.193Z,99231.07
2023-03-05T19:29:27.127Z,99224.38
2023-03-05T19:34:32.487Z,99225.07
2023-03-05T19:39:35.414Z,99228.19
2023-03-05T19:44:39.086Z,99229.08
2023-03-05T19:49:42.057Z,99229.65
2023-03-05T19:54:47.558Z,99237.17
2023-03-05T19:59:53.741Z,99239.33
2023-03-05T20:04:57.585Z,99232.10
2023-03-05T20:10:00.952Z,99233.66
2023-03-05T20:15:03.953Z,99231.39
2023-03-05T20:20:09.781Z,99229.18
2023-03-05T20:25:18.983Z,99227.92
2023-03-05T20:30:22.228Z,99229.14
2023-03-05T20:35:25.198Z,99225.48
2023-03-05T20:40:28.050Z,99224.38
2023-03-05T20:45:30.887Z,99223.30
2023-03-05T20:50:34.269Z,99215.70
2023-03-05T20:55:37.493Z,99214.26
2023-03-05T21:00:41.409Z,99210.27
2023-03-05T21:05:46.323Z,99206.46
2023-03-05T21:10:49.500Z,99205.70
2023-03-05T21:15:52.794Z,99204.73
2023-03-05T21:20:55.602Z,99201.03
2023-03-05T21:25:59.015Z,99196.26
2023-03-05T21:31:14.429Z,99196.06
2023-03-05T21:36:20.149Z,99195.11
2023-03-05T21:41:23.832Z,99193.99
2023-03-05T21:46:26.591Z,99189.44
2023-03-05T21:51:38.477Z,99184.85
2023-03-05T21:56:41.194Z,99185.56
2023-03-05T22:01:44.335Z,99186.50
2023-03-05T22:06:47.090Z,99185.15
2023-03-05T22:11:49.828Z,99184.31
2023-03-05T22:16:54.977Z,99184.10
2023-03-05T22:21:58.146Z,99182.70
2023-03-05T22:27:02.178Z,99176.20
2023-03-05T22:32:05.215Z,99170.58
2023-03-05T22:37:08.130Z,99167.69
2023-03-05T22:42:10.939Z,99161.86
2023-03-05T22:47:13.667Z,99161.25
2023-03-05T22:52:19.217Z,99158.30
2023-03-05T22:57:21.969Z,99162.29
2023-03-05T23:02:25.012Z,99163.77
2023-03-05T23:07:34.075Z,99156.82
2023-03-05T23:12:40.332Z,99152.93
2023-03-05T23:17:44.181Z,99149.45
2023-03-05T23:22:48.901Z,99148.17
2023-03-05T23:27:52.108Z,99142.48
2023-03-05T23:33:08.305Z,99142.17
2023-03-05T23:38:14.635Z,99140.48
2023-03-05T23:43:19.024Z,99140.98
2023-03-05T23:48:23.783Z,99140.83
2023-03-05T23:53:29.696Z,99132.09
2023-03-05T23:58:32.583Z,99129.39
